Terminal Aerodrome Forecast
Issued by NWS

Home | Current Version | Previous Version | Text Only | Print | Product List | Glossary Off
Versions: 1 2 3 4 5 6 7 8 9 10 11 12 13

000
FTUS43 KFGF 240340 AAA
TAFBJI
TAF AMD
KBJI 240340Z 2404/2424 35008KT P6SM SCT025 BKN250
     FM241200 01008KT P6SM SCT080
     FM241900 35012KT P6SM SCT080=

USA.gov is the U.S. government's official web portal to all federal, state and local government web resources and services.